createdAt,value
2023-11-29T00:00:19.965Z,56.37
2023-11-29T00:05:46.034Z,64.74
2023-11-29T00:10:49.723Z,65.33
2023-11-29T00:15:52.623Z,62.42
2023-11-29T00:20:55.428Z,56.90
2023-11-29T00:25:58.542Z,53.86
2023-11-29T00:31:01.454Z,55.54
2023-11-29T00:36:04.860Z,66.30
2023-11-29T00:41:07.727Z,70.05
2023-11-29T00:46:10.572Z,59.85
2023-11-29T00:51:13.777Z,52.16
2023-11-29T00:56:16.701Z,58.06
2023-11-29T01:01:19.711Z,65.30
2023-11-29T01:06:23.110Z,62.51
2023-11-29T01:11:26.041Z,52.69
2023-11-29T01:16:29.013Z,55.69
2023-11-29T01:21:35.656Z,62.13
2023-11-29T01:26:40.630Z,67.62
2023-11-29T01:31:43.578Z,64.40
2023-11-29T01:36:46.477Z,60.60
2023-11-29T01:41:49.308Z,56.05
2023-11-29T01:46:52.496Z,58.36
2023-11-29T01:51:55.392Z,65.46
2023-11-29T01:56:58.637Z,67.74
2023-11-29T02:02:02.039Z,63.51
2023-11-29T02:07:05.334Z,58.47
2023-11-29T02:12:08.856Z,58.57
2023-11-29T02:17:11.792Z,64.93
2023-11-29T02:22:15.522Z,65.34
2023-11-29T02:27:18.387Z,62.07
2023-11-29T02:32:21.696Z,60.27
2023-11-29T02:37:24.700Z,57.06
2023-11-29T02:42:27.610Z,60.30
2023-11-29T02:47:30.521Z,67.02
2023-11-29T02:52:33.519Z,66.59
2023-11-29T02:57:36.833Z,63.65
2023-11-29T03:02:39.732Z,60.92
2023-11-29T03:07:42.756Z,57.62
2023-11-29T03:12:45.648Z,59.25
2023-11-29T03:17:48.610Z,66.28
2023-11-29T03:22:51.557Z,64.68
2023-11-29T03:27:54.973Z,61.04
2023-11-29T03:32:57.954Z,55.85
2023-11-29T03:38:00.886Z,57.95
2023-11-29T03:43:03.928Z,65.78
2023-11-29T03:48:08.171Z,64.67
2023-11-29T03:53:11.251Z,62.06
2023-11-29T03:58:14.653Z,60.11
2023-11-29T04:03:17.614Z,56.26
2023-11-29T04:08:20.953Z,57.83
2023-11-29T04:13:23.876Z,60.75
2023-11-29T04:18:26.798Z,67.48
2023-11-29T04:23:29.708Z,68.55
2023-11-29T04:28:32.945Z,64.48
2023-11-29T04:33:36.361Z,61.39
2023-11-29T04:38:39.624Z,57.36
2023-11-29T04:43:42.945Z,57.60
2023-11-29T04:48:46.522Z,63.80
2023-11-29T04:53:49.565Z,69.62
2023-11-29T04:58:52.992Z,67.30
2023-11-29T05:03:56.233Z,63.66
2023-11-29T05:09:00.200Z,60.17
2023-11-29T05:14:04.147Z,56.34
2023-11-29T05:19:07.851Z,57.70
2023-11-29T05:24:11.499Z,63.05
2023-11-29T05:29:14.344Z,70.09
2023-11-29T05:34:17.306Z,67.26
2023-11-29T05:39:21.235Z,62.67
2023-11-29T05:44:24.160Z,59.69
2023-11-29T05:49:27.153Z,56.54
2023-11-29T05:54:30.561Z,59.57
2023-11-29T05:59:33.526Z,65.63
2023-11-29T06:04:36.504Z,69.59
2023-11-29T06:09:40.633Z,63.36
2023-11-29T06:14:43.858Z,59.98
2023-11-29T06:19:46.825Z,56.39
2023-11-29T06:24:49.640Z,59.47
2023-11-29T06:29:53.545Z,61.98
2023-11-29T06:34:57.927Z,69.72
2023-11-29T06:40:01.211Z,66.95
2023-11-29T06:45:04.952Z,63.40
2023-11-29T06:50:08.271Z,59.30
2023-11-29T06:55:11.587Z,53.81
2023-11-29T07:00:18.418Z,57.24
2023-11-29T07:05:21.900Z,60.77
2023-11-29T07:10:24.982Z,66.28
2023-11-29T07:15:27.856Z,67.17
2023-11-29T07:20:37.938Z,62.33
2023-11-29T07:25:46.602Z,55.54
2023-11-29T07:30:51.138Z,60.13
2023-11-29T07:35:54.277Z,57.92
2023-11-29T07:40:57.160Z,53.09
2023-11-29T07:46:00.233Z,61.86
2023-11-29T07:51:03.497Z,54.27
2023-11-29T07:56:07.523Z,63.92
2023-11-29T08:01:10.412Z,59.34
2023-11-29T08:06:14.277Z,49.94
2023-11-29T08:11:17.569Z,57.92
2023-11-29T08:16:20.962Z,55.59
2023-11-29T08:21:23.982Z,52.32
2023-11-29T08:26:27.451Z,56.89
2023-11-29T08:31:30.579Z,52.59
2023-11-29T08:36:33.358Z,48.69
2023-11-29T08:41:36.318Z,51.64
2023-11-29T08:46:39.290Z,48.46
2023-11-29T08:51:42.689Z,45.65
2023-11-29T08:56:45.614Z,44.55
2023-11-29T09:01:48.680Z,46.80
2023-11-29T09:06:51.759Z,45.03
2023-11-29T09:11:55.099Z,43.86
2023-11-29T09:16:58.145Z,40.57
2023-11-29T09:22:01.858Z,38.48
2023-11-29T09:27:06.029Z,38.77
2023-11-29T09:32:08.909Z,38.86
2023-11-29T09:37:11.830Z,36.69
2023-11-29T09:42:14.659Z,41.14
2023-11-29T09:47:18.528Z,35.20
2023-11-29T09:52:22.441Z,36.59
2023-11-29T09:57:25.309Z,37.65
2023-11-29T10:02:28.903Z,34.86
2023-11-29T10:07:32.793Z,38.43
2023-11-29T10:12:42.038Z,36.42
2023-11-29T10:17:46.382Z,36.52
2023-11-29T10:22:50.708Z,34.44
2023-11-29T10:27:53.704Z,34.28
2023-11-29T10:32:56.957Z,32.41
2023-11-29T10:38:04.957Z,35.58
2023-11-29T10:43:10.905Z,33.72
2023-11-29T10:48:17.792Z,32.48
2023-11-29T10:53:21.221Z,32.97
2023-11-29T10:58:24.836Z,33.86
2023-11-29T11:03:44.882Z,33.88
2023-11-29T11:08:48.024Z,32.63
2023-11-29T11:13:52.224Z,31.73
2023-11-29T11:18:56.533Z,32.04
2023-11-29T11:24:01.825Z,31.57
2023-11-29T11:29:05.818Z,31.01
2023-11-29T11:34:08.719Z,31.65
2023-11-29T11:39:11.627Z,33.23
2023-11-29T11:44:14.738Z,33.25
2023-11-29T11:49:17.519Z,33.28
2023-11-29T11:54:21.264Z,33.13
2023-11-29T11:59:24.290Z,33.30
2023-11-29T12:04:28.050Z,31.81
2023-11-29T12:09:31.303Z,31.86
2023-11-29T12:14:34.168Z,32.40
2023-11-29T12:19:37.314Z,33.39
2023-11-29T12:24:47.813Z,34.43
2023-11-29T12:29:52.935Z,34.73
2023-11-29T12:34:57.806Z,35.52
2023-11-29T12:40:00.621Z,35.67
2023-11-29T12:45:03.860Z,37.15
2023-11-29T12:50:07.466Z,38.08
2023-11-29T12:55:10.466Z,39.65
2023-11-29T13:00:14.645Z,40.42
2023-11-29T13:05:17.694Z,40.68
2023-11-29T13:10:20.541Z,40.88
2023-11-29T13:15:23.514Z,41.42
2023-11-29T13:20:27.710Z,41.43
2023-11-29T13:25:31.810Z,41.83
2023-11-29T13:30:34.673Z,41.77
2023-11-29T13:35:37.628Z,42.60
2023-11-29T13:40:41.684Z,43.79
2023-11-29T13:45:44.790Z,45.17
2023-11-29T13:50:47.830Z,45.55
2023-11-29T13:55:50.834Z,46.64
2023-11-29T14:00:53.744Z,51.96
2023-11-29T14:05:59.373Z,50.50
2023-11-29T14:11:02.258Z,54.73
2023-11-29T14:16:05.427Z,53.72
2023-11-29T14:21:09.177Z,56.61
2023-11-29T14:26:13.097Z,55.73
2023-11-29T14:31:16.827Z,56.62
2023-11-29T14:36:19.704Z,57.43
2023-11-29T14:41:28.736Z,58.16
2023-11-29T14:46:31.864Z,58.22
2023-11-29T14:51:35.072Z,64.39
2023-11-29T14:56:38.797Z,71.91
2023-11-29T15:01:41.935Z,63.45
2023-11-29T15:06:45.492Z,50.96
2023-11-29T15:11:53.920Z,49.66
2023-11-29T15:16:56.978Z,51.15
2023-11-29T15:22:00.975Z,55.33
2023-11-29T15:27:04.642Z,55.81
2023-11-29T15:32:08.854Z,59.50
2023-11-29T15:37:11.757Z,60.33
2023-11-29T15:42:14.774Z,67.25
2023-11-29T15:47:17.770Z,63.64
2023-11-29T15:52:20.880Z,55.87
2023-11-29T15:57:23.781Z,55.34
2023-11-29T16:02:26.761Z,60.28
2023-11-29T16:07:30.633Z,67.12
2023-11-29T16:12:34.044Z,57.04
2023-11-29T16:17:36.990Z,58.70
2023-11-29T16:22:40.258Z,65.04
2023-11-29T16:27:43.844Z,59.35
2023-11-29T16:32:47.134Z,61.25
2023-11-29T16:37:50.304Z,64.07
2023-11-29T16:42:53.200Z,63.46
2023-11-29T16:47:56.292Z,59.27
2023-11-29T16:52:59.317Z,55.12
2023-11-29T16:58:02.223Z,57.32
2023-11-29T17:03:16.250Z,57.54
2023-11-29T17:08:19.945Z,60.05
2023-11-29T17:13:22.811Z,61.47
2023-11-29T17:18:25.822Z,71.75
2023-11-29T17:23:29.539Z,68.05
2023-11-29T17:28:32.966Z,62.96
2023-11-29T17:33:36.009Z,56.11
2023-11-29T17:38:39.302Z,55.46
2023-11-29T17:43:42.208Z,57.11
2023-11-29T17:48:45.199Z,62.85
2023-11-29T17:53:48.220Z,66.93
2023-11-29T17:58:51.104Z,62.89
2023-11-29T18:03:54.032Z,52.73
2023-11-29T18:08:58.815Z,53.79
2023-11-29T18:14:01.701Z,55.46
2023-11-29T18:19:04.979Z,58.62
2023-11-29T18:24:08.556Z,59.51
2023-11-29T18:29:11.464Z,64.56
2023-11-29T18:34:14.811Z,70.44
2023-11-29T18:39:20.539Z,59.06
2023-11-29T18:44:23.489Z,57.07
2023-11-29T18:49:27.627Z,59.32
2023-11-29T18:54:30.632Z,64.88
2023-11-29T18:59:35.085Z,63.89
2023-11-29T19:04:38.166Z,59.63
2023-11-29T19:09:41.703Z,61.81
2023-11-29T19:14:44.625Z,65.89
2023-11-29T19:19:47.501Z,62.79
2023-11-29T19:24:50.422Z,58.27
2023-11-29T19:29:53.272Z,58.90
2023-11-29T19:34:56.325Z,64.02
2023-11-29T19:39:59.260Z,63.03
2023-11-29T19:45:02.022Z,58.33
2023-11-29T19:50:05.238Z,57.15
2023-11-29T19:55:08.616Z,57.47
2023-11-29T20:00:12.013Z,60.51
2023-11-29T20:05:15.079Z,65.22
2023-11-29T20:10:18.039Z,70.80
2023-11-29T20:15:22.232Z,65.27
2023-11-29T20:20:35.330Z,61.67
2023-11-29T20:25:44.311Z,56.65
2023-11-29T20:30:48.295Z,51.43
2023-11-29T20:35:53.193Z,51.79
2023-11-29T20:40:56.243Z,55.43
2023-11-29T20:45:59.096Z,58.88
2023-11-29T20:51:02.419Z,61.49
2023-11-29T20:56:06.030Z,66.34
2023-11-29T21:01:09.250Z,63.05
2023-11-29T21:06:12.173Z,57.67
2023-11-29T21:11:19.157Z,56.30
2023-11-29T21:16:22.194Z,57.48
2023-11-29T21:21:25.301Z,64.21
2023-11-29T21:26:28.293Z,63.34
2023-11-29T21:31:33.218Z,58.75
2023-11-29T21:36:38.081Z,60.61
2023-11-29T21:41:41.148Z,64.49
2023-11-29T21:46:46.449Z,61.99
2023-11-29T21:51:49.362Z,58.54
2023-11-29T21:56:52.228Z,61.66
2023-11-29T22:01:55.242Z,66.50
2023-11-29T22:06:58.271Z,62.88
2023-11-29T22:12:01.213Z,57.66
2023-11-29T22:17:04.189Z,61.24
2023-11-29T22:22:07.110Z,65.81
2023-11-29T22:27:10.902Z,62.69
2023-11-29T22:32:14.010Z,57.43
2023-11-29T22:37:17.035Z,61.80
2023-11-29T22:42:20.002Z,63.79
2023-11-29T22:47:23.054Z,60.20
2023-11-29T22:52:25.945Z,56.86
2023-11-29T22:57:28.885Z,61.07
2023-11-29T23:02:31.981Z,64.07
2023-11-29T23:07:34.961Z,58.42
2023-11-29T23:12:37.876Z,57.52
2023-11-29T23:17:40.845Z,62.78
2023-11-29T23:22:43.781Z,64.17
2023-11-29T23:27:47.096Z,57.39
2023-11-29T23:32:50.177Z,59.51
2023-11-29T23:37:53.102Z,65.59
2023-11-29T23:42:55.913Z,61.86
2023-11-29T23:47:58.939Z,56.59
2023-11-29T23:53:02.065Z,59.63
2023-11-29T23:58:05.145Z,64.68
